KTCC/TCC METAR and TAF weather

Enter ICAO airport designator
Station Type Date Time Source
KTCC METAR 2019/09/21 21:53 UTC NOAA

KTCC 212153Z AUTO 21013G20KT 10SM CLR 28/14 A2992 RMK AO2 SLP067 T02830144


Station Type Date Time Source
KTCC Decoded METAR 2019/09/21 21:53 UTC NOAA

TUCUMCARI MUNICIPAL AIRPORT , NM, United States (KTCC) 35-11N 103-36W 1235M
Sep 21, 2019 - 05:53 PM EDT / 2019.09.21 2153 UTC
Wind: from the SSW (210 degrees) at 15 MPH (13 KT) gusting to 23 MPH (20 KT):0
Visibility: 10 mile(s):0
Sky conditions: clear
Temperature: 82.9 F (28.3 C)
Dew Point: 57.9 F (14.4 C)
Relative Humidity: 42%
Pressure (altimeter): 29.92 in. Hg (1013 hPa)
ob: KTCC 212153Z AUTO 21013G20KT 10SM CLR 28/14 A2992 RMK AO2 SLP067 T02830144
cycle: 22

Station Type Date Time Source
KTCC TAF 2019/09/21 18:30 UTC NOAA

TAF KTCC 211729Z 2118/2218 22014G21KT P6SM SCT080
FM212200 21012G17KT P6SM VCTS SCT070CB BKN200
FM220300 24009KT P6SM BKN200
FM221400 01010KT P6SM SCT025 BKN200

Example: see airport list